»·PEaware :: AAL2948 KFAT-KPHX

AAL2948 :: KFAT-KPHX

FLIGHT INFORMATION

Flight Status: Arrived
Operator:
American Airlines
More flights by this operator :: More flights under this callsign
Pilot: Dave P. (45)
Aircraft: BOEING 737-600
(B736)
More flights by this aircraft type
Origin: KFAT Fresno Yosemite Intl
United States
Destination: KPHX Phoenix Sky Harbor Intl
United States
More flights between these airports :: More routes between these airports
Route: +CZQ FRAME EHF J65 BLH HYDRR1
File this flight plan on PilotEdge
Remarks: PBN / A1B1C1D1S1S2 DOF / 180805 REG / N736PM EET / KZLA0012 KZAB0053 OPR / AAL PER / C RMK / TCAS SIMBRIEF
Altitude:
(Current/Filed)
35,000ft
Speed:
(Current/Filed)
467kts
Departed: 05-Aug-18 09:05 AM
Arrived: 05-Aug-18 10:20 AM
Distance/Time
Traveled:
428nm/1:15
Distance/Time
To Go:
Arrived

Flight Plot

Page will automatically refresh every two minutes.

Flight plan parsing failed; only flown route is shown


Map Options




Map Legend


Flown Route
Filed Route
Departure Airport
Arrival Airport
Navaid (VOR, NDB)
Fix

Horizontal Profiles

Position Reports

Time Latitude Longitude Heading Altitude Ground
Speed
05-Aug-18 08:50 36.770973 -119.718339 121 343ft 0kts
05-Aug-18 08:51 36.770973 -119.718339 121 343ft 0kts
05-Aug-18 08:52 36.770973 -119.718339 121 343ft 0kts
05-Aug-18 08:53 36.770973 -119.718339 121 343ft 0kts
05-Aug-18 08:54 36.770973 -119.718339 121 343ft 0kts
05-Aug-18 08:55 36.770973 -119.718339 121 343ft 0kts
05-Aug-18 08:56 36.770973 -119.718339 121 343ft 0kts
05-Aug-18 08:57 36.771265 -119.718923 121 343ft 2kts
05-Aug-18 08:58 36.771303 -119.719001 121 343ft 0kts
05-Aug-18 08:59 36.771303 -119.719001 121 343ft 0kts
05-Aug-18 09:00 36.771303 -119.719001 121 343ft 0kts
05-Aug-18 09:01 36.771515 -119.718804 16 343ft 9kts
05-Aug-18 09:02 36.771670 -119.715144 124 343ft 20kts
05-Aug-18 09:03 36.768739 -119.709958 125 343ft 18kts
05-Aug-18 09:04 36.767691 -119.704861 81 343ft 12kts
05-Aug-18 09:05 36.768172 -119.703738 36 343ft 6kts
05-Aug-18 09:06 36.772884 -119.710610 305 344ft 93kts
05-Aug-18 09:07 36.796766 -119.752246 307 1932ft 156kts
05-Aug-18 09:08 36.828945 -119.804687 307 3460ft 232kts
05-Aug-18 09:09 36.887705 -119.836030 33 6132ft 277kts
05-Aug-18 09:10 36.882587 -119.751511 145 9190ft 295kts
05-Aug-18 09:11 36.802359 -119.723939 169 10350ft 316kts
05-Aug-18 09:12 36.708009 -119.698891 170 12274ft 365kts
05-Aug-18 09:13 36.606823 -119.670396 164 15257ft 381kts
05-Aug-18 09:14 36.506550 -119.619415 160 18013ft 397kts
05-Aug-18 09:15 36.402975 -119.565557 161 20482ft 411kts
05-Aug-18 09:16 36.295544 -119.510185 162 22690ft 424kts
05-Aug-18 09:17 36.185268 -119.453327 162 24623ft 435kts
05-Aug-18 09:18 36.071788 -119.395162 163 26333ft 446kts
05-Aug-18 09:19 35.955981 -119.336054 163 27828ft 455kts
05-Aug-18 09:20 35.837961 -119.275996 163 29159ft 463kts
05-Aug-18 09:21 35.717779 -119.214921 163 30502ft 466kts
05-Aug-18 09:22 35.599019 -119.154927 164 32264ft 459kts
05-Aug-18 09:23 35.483172 -119.090233 154 33921ft 463kts
05-Aug-18 09:24 35.380780 -118.991270 146 35006ft 471kts
05-Aug-18 09:25 35.280703 -118.889152 146 35026ft 467kts
05-Aug-18 09:26 35.180521 -118.786653 146 35064ft 468kts
05-Aug-18 09:27 35.080453 -118.685172 145 35118ft 468kts
05-Aug-18 09:28 34.984742 -118.576851 135 35149ft 476kts
05-Aug-18 09:29 34.901343 -118.454970 135 35139ft 477kts
05-Aug-18 09:30 34.816396 -118.331198 134 35090ft 476kts
05-Aug-18 09:31 34.731403 -118.207871 134 35036ft 477kts
05-Aug-18 09:32 34.647158 -118.083251 128 35032ft 479kts
05-Aug-18 09:33 34.592131 -117.934575 112 35032ft 487kts
05-Aug-18 09:34 34.546292 -117.780048 113 35029ft 487kts
05-Aug-18 09:35 34.499981 -117.625355 112 35023ft 487kts
05-Aug-18 09:36 34.453733 -117.471297 113 35038ft 487kts
05-Aug-18 09:37 34.407325 -117.317385 113 35029ft 488kts
05-Aug-18 09:38 34.360175 -117.163098 113 35045ft 487kts
05-Aug-18 09:39 34.313874 -117.012431 113 35145ft 487kts
05-Aug-18 09:40 34.274272 -116.884335 113 35253ft 486kts
05-Aug-18 09:41 34.218937 -116.706403 113 35284ft 485kts
05-Aug-18 09:42 34.171772 -116.554157 113 35183ft 484kts
05-Aug-18 09:43 34.132231 -116.427137 113 35084ft 483kts
05-Aug-18 09:44 34.084779 -116.275803 113 35014ft 482kts
05-Aug-18 09:45 34.029205 -116.099669 113 34978ft 482kts
05-Aug-18 09:46 33.989205 -115.973531 113 34949ft 482kts
05-Aug-18 09:47 33.941271 -115.823050 113 34916ft 482kts
05-Aug-18 09:48 33.885285 -115.647599 113 34894ft 481kts
05-Aug-18 09:49 33.844819 -115.522278 113 34887ft 480kts
05-Aug-18 09:50 33.796317 -115.372736 113 34880ft 480kts
05-Aug-18 09:51 33.747595 -115.223470 113 34874ft 479kts
05-Aug-18 09:52 33.698938 -115.073943 113 34869ft 479kts
05-Aug-18 09:53 33.650230 -114.925093 113 34863ft 479kts
05-Aug-18 09:54 33.601084 -114.775877 111 34858ft 480kts
05-Aug-18 09:55 33.568524 -114.620771 104 32764ft 481kts
05-Aug-18 09:56 33.537967 -114.464270 105 29345ft 482kts
05-Aug-18 09:57 33.508156 -114.310253 105 26573ft 465kts
05-Aug-18 09:58 33.478718 -114.162015 105 23854ft 451kts
05-Aug-18 09:59 33.450904 -114.022717 105 22572ft 410kts
05-Aug-18 10:00 33.424510 -113.891576 105 21364ft 405kts
05-Aug-18 10:01 33.398555 -113.761696 105 20336ft 398kts
05-Aug-18 10:02 33.372737 -113.634261 105 19331ft 391kts
05-Aug-18 10:03 33.347013 -113.508499 105 18274ft 384kts
05-Aug-18 10:04 33.323931 -113.384889 103 17456ft 380kts
05-Aug-18 10:05 33.302819 -113.261604 103 16505ft 375kts
05-Aug-18 10:06 33.284364 -113.139860 101 15555ft 370kts
05-Aug-18 10:07 33.274807 -113.020423 89 14365ft 350kts
05-Aug-18 10:08 33.278451 -112.905320 90 12899ft 341kts
05-Aug-18 10:09 33.289331 -112.796835 71 11552ft 320kts
05-Aug-18 10:10 33.324975 -112.702777 66 10168ft 299kts
05-Aug-18 10:11 33.358496 -112.615088 65 9203ft 283kts
05-Aug-18 10:12 33.390602 -112.530732 65 8306ft 268kts
05-Aug-18 10:13 33.418866 -112.452785 67 7345ft 248kts
05-Aug-18 10:14 33.442547 -112.376035 88 6324ft 242kts
05-Aug-18 10:15 33.440962 -112.296618 91 5383ft 225kts
05-Aug-18 10:16 33.440828 -112.224902 90 4316ft 202kts
05-Aug-18 10:17 33.440825 -112.162002 91 3335ft 177kts
05-Aug-18 10:18 33.440824 -112.105952 91 2421ft 155kts
05-Aug-18 10:19 33.440825 -112.057416 91 1650ft 143kts
05-Aug-18 10:20 33.440836 -112.013195 89 1143ft 68kts
05-Aug-18 10:21 33.439718 -112.004789 89 1142ft 13kts
05-Aug-18 10:22 33.439511 -112.000866 153 1142ft 11kts
05-Aug-18 10:23 33.437999 -111.999847 108 1142ft 0kts
05-Aug-18 10:24 33.437999 -111.999847 108 1142ft 0kts
05-Aug-18 10:25 33.437999 -111.999847 108 1142ft 0kts

Navigation Log

Ident Type
Flight plan parsing failed, navigation log unavailable